Houston Lake, Missouri
Current Conditions -  °F | °C
As of 9:54 AM on Wednesday 28 Jan 2015 (Local Time) from KMKC Reporting Station
Clear Clear  
Wind Chill: 13°   Ceiling: Unl
Heat Index: 13°   Visibility: 10mi
Dew Point:   Wind: 13mph
Humidity: 47%   Direction: 200°SSW
Pressure: 29.92"   Gusts: 20mph
Location:  39.2125°N, 94.6296°W
Report Text: KMKC 281554Z 20011G17KT 10SM CLR 13/02 A2992 RMK AO2 SLP133 T01280017
Loading
Personal Weather Stations






























Interactive Weather Map New forecast layout! Learn more

10-Day Weather Forecast

Advertisements
Track Severe Weather on mobile